Time;durP1;ratioP1;P1;durP2;ratioP2;P2;SDS_P1;SDS_P2;PMS_P1;PMS_P2;Temp;Humidity;BMP_temperature;BMP_pressure;BME280_temperature;BME280_humidity;BME280_pressure;Samples;Min_cycle;Max_cycle;Signal;HPM_P1;HPM_P2
2024/01/01 00:01:40;;;;;;;13.57;10.52;;;;;;;;;;5043815;28;20041;-71
2024/01/01 00:04:06;;;;;;;13.88;10.55;;;;;;;;;;5042208;28;20364;-71
2024/01/01 00:06:31;;;;;;;13.85;10.73;;;;;;;;;;5047334;28;20041;-71
2024/01/01 00:08:56;;;;;;;14.05;10.85;;;;;;;;;;5043259;28;20040;-71
2024/01/01 00:11:22;;;;;;;15.43;10.77;;;;;;;;;;5045653;28;20353;-72
2024/01/01 00:13:47;;;;;;;12.77;10.57;;;;;;;;;;5040238;28;20026;-71
2024/01/01 00:16:14;;;;;;;15.40;11.50;;;;;;;;;;5044002;28;20271;-73
2024/01/01 00:18:39;;;;;;;14.77;11.27;;;;;;;;;;5027993;28;20064;-71
2024/01/01 00:21:05;;;;;;;14.88;11.40;;;;;;;;;;5042823;28;20032;-73
2024/01/01 00:23:30;;;;;;;15.27;11.38;;;;;;;;;;5043961;28;20037;-72
2024/01/01 00:25:55;;;;;;;14.07;11.35;;;;;;;;;;5058819;28;20343;-71
2024/01/01 00:28:21;;;;;;;14.98;12.05;;;;;;;;;;5046869;28;20111;-71
2024/01/01 00:30:46;;;;;;;15.30;11.65;;;;;;;;;;5040663;28;20471;-71
2024/01/01 00:33:11;;;;;;;16.05;11.90;;;;;;;;;;5050727;28;20036;-71
2024/01/01 00:35:37;;;;;;;15.93;12.15;;;;;;;;;;5042419;28;20043;-71
2024/01/01 00:38:02;;;;;;;15.00;11.80;;;;;;;;;;5040607;28;20042;-71
2024/01/01 00:40:28;;;;;;;16.40;12.32;;;;;;;;;;5041383;28;20029;-71
2024/01/01 00:42:53;;;;;;;17.13;12.77;;;;;;;;;;5045375;28;20095;-71
2024/01/01 00:45:18;;;;;;;16.48;12.65;;;;;;;;;;5038359;28;20033;-71
2024/01/01 00:47:45;;;;;;;16.50;12.57;;;;;;;;;;5046036;28;20522;-70
2024/01/01 00:50:10;;;;;;;16.60;13.20;;;;;;;;;;5043357;28;20030;-72
2024/01/01 00:52:36;;;;;;;16.30;12.68;;;;;;;;;;5043195;28;20047;-72
2024/01/01 00:55:03;;;;;;;15.73;13.00;;;;;;;;;;5057673;28;20081;-71
2024/01/01 00:57:28;;;;;;;16.90;12.90;;;;;;;;;;5045895;28;20025;-71
2024/01/01 00:59:53;;;;;;;17.90;13.55;;;;;;;;;;5049251;28;20029;-70
2024/01/01 01:02:20;;;;;;;17.58;13.98;;;;;;;;;;5039897;28;20048;-70
2024/01/01 01:04:46;;;;;;;17.63;13.57;;;;;;;;;;5037565;28;20032;-72
2024/01/01 01:07:12;;;;;;;18.02;13.93;;;;;;;;;;5053459;28;20041;-71
2024/01/01 01:09:37;;;;;;;17.05;13.70;;;;;;;;;;5044835;28;20535;-71
2024/01/01 01:12:03;;;;;;;18.00;14.18;;;;;;;;;;5041456;28;20057;-71
2024/01/01 01:14:28;;;;;;;18.23;14.52;;;;;;;;;;5035848;28;20041;-71
2024/01/01 01:16:53;;;;;;;17.70;14.30;;;;;;;;;;5041116;28;20113;-71
2024/01/01 01:19:19;;;;;;;18.63;14.27;;;;;;;;;;5044773;28;20044;-71
2024/01/01 01:21:44;;;;;;;18.23;14.73;;;;;;;;;;5056470;28;20033;-71
2024/01/01 01:24:11;;;;;;;19.33;15.90;;;;;;;;;;5040476;28;20029;-72
2024/01/01 01:26:36;;;;;;;18.63;15.25;;;;;;;;;;5043972;28;20040;-71
2024/01/01 01:29:02;;;;;;;19.20;15.48;;;;;;;;;;5042756;28;20394;-71
2024/01/01 01:31:28;;;;;;;19.08;15.45;;;;;;;;;;5042971;28;20091;-71
2024/01/01 01:33:53;;;;;;;20.00;15.45;;;;;;;;;;5041355;28;20060;-70
2024/01/01 01:36:18;;;;;;;18.40;14.93;;;;;;;;;;5055636;28;20079;-72
2024/01/01 01:38:44;;;;;;;20.10;15.95;;;;;;;;;;5044791;28;20033;-71
2024/01/01 01:41:09;;;;;;;19.40;15.27;;;;;;;;;;5058390;28;20634;-71
2024/01/01 01:43:34;;;;;;;19.08;15.77;;;;;;;;;;5040140;28;20052;-71
2024/01/01 01:46:00;;;;;;;20.02;16.08;;;;;;;;;;5044536;28;20053;-71
2024/01/01 01:48:25;;;;;;;20.77;15.85;;;;;;;;;;5054425;28;20041;-71
2024/01/01 01:50:51;;;;;;;22.23;16.35;;;;;;;;;;5041009;28;20194;-71
2024/01/01 01:53:23;;;;;;;21.73;17.02;;;;;;;;;;5038258;28;20037;-71
2024/01/01 01:55:48;;;;;;;20.83;17.10;;;;;;;;;;5048790;28;20068;-71
2024/01/01 01:58:14;;;;;;;23.30;17.00;;;;;;;;;;5044083;28;20065;-71
2024/01/01 02:00:39;;;;;;;21.30;17.77;;;;;;;;;;5047401;28;20033;-71
2024/01/01 02:03:05;;;;;;;21.70;16.95;;;;;;;;;;5035683;28;20045;-71
2024/01/01 02:05:31;;;;;;;21.85;17.58;;;;;;;;;;5048199;28;20453;-71
2024/01/01 02:07:56;;;;;;;22.77;17.73;;;;;;;;;;5043060;28;20112;-71
2024/01/01 02:10:21;;;;;;;22.17;17.55;;;;;;;;;;5064102;28;20124;-71
2024/01/01 02:12:46;;;;;;;22.88;17.77;;;;;;;;;;5028257;28;20037;-71
2024/01/01 02:15:12;;;;;;;22.38;17.75;;;;;;;;;;5035777;28;20055;-70
2024/01/01 02:17:37;;;;;;;22.58;17.75;;;;;;;;;;5041869;28;20176;-71
2024/01/01 02:20:03;;;;;;;22.08;17.48;;;;;;;;;;5058719;28;20045;-71
2024/01/01 02:22:38;;;;;;;22.70;17.50;;;;;;;;;;5049261;28;20029;-71
2024/01/01 02:25:03;;;;;;;23.67;18.67;;;;;;;;;;5040131;28;20029;-71
2024/01/01 02:27:29;;;;;;;24.65;19.27;;;;;;;;;;5054348;28;20060;-71
2024/01/01 02:29:54;;;;;;;24.30;18.58;;;;;;;;;;5063463;28;20112;-70
2024/01/01 02:32:19;;;;;;;25.20;19.38;;;;;;;;;;5050207;28;20036;-71
2024/01/01 02:34:47;;;;;;;22.88;18.30;;;;;;;;;;5046725;28;20048;-71
2024/01/01 02:37:12;;;;;;;23.23;18.45;;;;;;;;;;5046189;28;20095;-71
2024/01/01 02:39:38;;;;;;;24.95;19.20;;;;;;;;;;5044881;28;20067;-71
2024/01/01 02:42:03;;;;;;;23.13;18.15;;;;;;;;;;5052162;28;20037;-71
2024/01/01 02:44:28;;;;;;;25.23;18.80;;;;;;;;;;5040474;28;20422;-71
2024/01/01 02:46:54;;;;;;;25.33;19.50;;;;;;;;;;5043395;28;20026;-71
2024/01/01 02:49:19;;;;;;;23.67;19.08;;;;;;;;;;5060983;28;20033;-72
2024/01/01 02:51:44;;;;;;;26.48;20.20;;;;;;;;;;5055415;28;20052;-71
2024/01/01 02:54:10;;;;;;;27.00;20.08;;;;;;;;;;5046246;28;20576;-71
2024/01/01 02:56:35;;;;;;;26.17;20.25;;;;;;;;;;5040285;28;20047;-71
2024/01/01 02:59:01;;;;;;;25.10;19.55;;;;;;;;;;5055566;28;20040;-71
2024/01/01 03:01:26;;;;;;;23.77;19.50;;;;;;;;;;5059576;28;20036;-71
2024/01/01 03:03:51;;;;;;;25.40;20.33;;;;;;;;;;5044087;28;20025;-71
2024/01/01 03:06:17;;;;;;;24.83;19.63;;;;;;;;;;5041372;28;20036;-71
2024/01/01 03:08:42;;;;;;;26.83;20.55;;;;;;;;;;5055160;28;20048;-71
2024/01/01 03:11:09;;;;;;;24.60;19.65;;;;;;;;;;5060205;28;20492;-72
2024/01/01 03:13:34;;;;;;;25.00;20.08;;;;;;;;;;5046393;28;20026;-72
2024/01/01 03:16:00;;;;;;;26.58;21.17;;;;;;;;;;5058568;28;20106;-71
2024/01/01 03:18:25;;;;;;;26.35;20.10;;;;;;;;;;5058823;28;20036;-71
2024/01/01 03:20:50;;;;;;;26.90;20.90;;;;;;;;;;5075732;28;20055;-71
2024/01/01 03:23:16;;;;;;;26.55;21.35;;;;;;;;;;5049479;28;20041;-71
2024/01/01 03:25:41;;;;;;;28.30;21.83;;;;;;;;;;5042583;28;20095;-71
2024/01/01 03:28:09;;;;;;;28.85;21.55;;;;;;;;;;5058956;28;20033;-71
2024/01/01 03:30:35;;;;;;;26.85;21.25;;;;;;;;;;5072176;28;20032;-71
2024/01/01 03:33:00;;;;;;;27.25;21.83;;;;;;;;;;5037135;28;20376;-72
2024/01/01 03:35:26;;;;;;;29.15;21.30;;;;;;;;;;5040290;28;20041;-71
2024/01/01 03:37:51;;;;;;;27.35;21.85;;;;;;;;;;5056381;28;20144;-71
2024/01/01 03:40:16;;;;;;;27.77;22.13;;;;;;;;;;5070117;28;20029;-71
2024/01/01 03:42:42;;;;;;;27.63;21.88;;;;;;;;;;5056357;28;20038;-71
2024/01/01 03:45:08;;;;;;;27.20;21.67;;;;;;;;;;5052253;28;20583;-71
2024/01/01 03:47:33;;;;;;;26.98;21.00;;;;;;;;;;5057532;28;20051;-71
2024/01/01 03:49:58;;;;;;;24.83;20.40;;;;;;;;;;5050453;28;20037;-71
2024/01/01 03:52:24;;;;;;;26.15;21.25;;;;;;;;;;5059731;28;20381;-71
2024/01/01 03:54:49;;;;;;;26.80;21.50;;;;;;;;;;5049391;28;20049;-71
2024/01/01 03:57:15;;;;;;;26.88;22.02;;;;;;;;;;5048442;28;20028;-72
2024/01/01 03:59:40;;;;;;;28.60;22.67;;;;;;;;;;5050130;28;20033;-71
2024/01/01 04:02:05;;;;;;;27.67;22.23;;;;;;;;;;5050662;28;20041;-71
2024/01/01 04:04:31;;;;;;;29.08;22.90;;;;;;;;;;5051492;28;20033;-71
2024/01/01 04:06:56;;;;;;;27.98;21.98;;;;;;;;;;5051481;28;20039;-71
2024/01/01 04:09:21;;;;;;;27.92;23.00;;;;;;;;;;5074107;28;20041;-71
2024/01/01 04:11:47;;;;;;;28.65;23.15;;;;;;;;;;5048095;28;20029;-71
2024/01/01 04:14:13;;;;;;;26.67;21.75;;;;;;;;;;5051009;28;20060;-71
2024/01/01 04:16:38;;;;;;;27.98;22.25;;;;;;;;;;5055848;28;20047;-71
2024/01/01 04:19:04;;;;;;;27.17;22.20;;;;;;;;;;5044064;28;20033;-71
2024/01/01 04:21:29;;;;;;;28.25;22.45;;;;;;;;;;5060960;28;20146;-71
2024/01/01 04:23:57;;;;;;;27.35;21.95;;;;;;;;;;5051382;28;20428;-72
2024/01/01 04:26:23;;;;;;;28.80;22.73;;;;;;;;;;5056203;28;20137;-71
2024/01/01 04:28:48;;;;;;;27.85;22.65;;;;;;;;;;5052147;28;20164;-72
2024/01/01 04:31:13;;;;;;;29.10;22.70;;;;;;;;;;5060603;28;20052;-72
2024/01/01 04:33:39;;;;;;;29.75;22.55;;;;;;;;;;5049525;28;20014;-72
2024/01/01 04:36:04;;;;;;;28.95;22.65;;;;;;;;;;5043762;28;20540;-71
2024/01/01 04:38:29;;;;;;;28.38;22.25;;;;;;;;;;5054268;28;20518;-71
2024/01/01 04:40:55;;;;;;;30.63;23.52;;;;;;;;;;5068595;28;20029;-72
2024/01/01 04:43:20;;;;;;;30.17;22.50;;;;;;;;;;5054657;28;20507;-71
2024/01/01 04:45:46;;;;;;;30.17;22.70;;;;;;;;;;5052859;28;20027;-71
2024/01/01 04:48:11;;;;;;;29.42;23.40;;;;;;;;;;5049250;28;20336;-71
2024/01/01 04:50:36;;;;;;;27.95;21.58;;;;;;;;;;5055405;28;20024;-71
2024/01/01 04:53:02;;;;;;;28.80;22.50;;;;;;;;;;5049457;28;20021;-72
2024/01/01 04:55:27;;;;;;;28.02;22.45;;;;;;;;;;5055604;28;20089;-71
2024/01/01 04:57:52;;;;;;;31.83;24.17;;;;;;;;;;5046024;28;20507;-71
2024/01/01 05:00:18;;;;;;;28.35;22.75;;;;;;;;;;5051468;28;20024;-71
2024/01/01 05:02:43;;;;;;;28.88;22.70;;;;;;;;;;5049605;28;20028;-71
2024/01/01 05:05:08;;;;;;;29.95;24.02;;;;;;;;;;5051767;28;20511;-71
2024/01/01 05:07:36;;;;;;;29.25;23.10;;;;;;;;;;5052896;28;20021;-72
2024/01/01 05:10:01;;;;;;;29.90;23.48;;;;;;;;;;5032569;28;20029;-72
2024/01/01 05:12:27;;;;;;;28.98;23.10;;;;;;;;;;5053145;28;20040;-71
2024/01/01 05:14:52;;;;;;;29.40;23.13;;;;;;;;;;5051615;28;20025;-71
2024/01/01 05:17:17;;;;;;;30.00;23.63;;;;;;;;;;5055007;28;20086;-71
2024/01/01 05:19:43;;;;;;;28.63;22.38;;;;;;;;;;5049052;28;20031;-72
2024/01/01 05:22:08;;;;;;;29.33;22.50;;;;;;;;;;5055665;28;20036;-71
2024/01/01 05:24:35;;;;;;;28.15;23.00;;;;;;;;;;5040553;28;20032;-71
2024/01/01 05:27:01;;;;;;;30.38;23.35;;;;;;;;;;5050084;28;20025;-71
2024/01/01 05:29:26;;;;;;;31.15;23.95;;;;;;;;;;5048006;28;20433;-71
2024/01/01 05:31:51;;;;;;;30.00;22.90;;;;;;;;;;5063753;28;20024;-71
2024/01/01 05:34:17;;;;;;;29.52;22.77;;;;;;;;;;5033946;28;20494;-71
2024/01/01 05:36:42;;;;;;;29.15;23.17;;;;;;;;;;5052476;28;20032;-71
2024/01/01 05:39:07;;;;;;;30.33;24.67;;;;;;;;;;5048871;28;20025;-71
2024/01/01 05:41:33;;;;;;;28.63;22.90;;;;;;;;;;5061238;28;20513;-71
2024/01/01 05:43:58;;;;;;;28.40;22.60;;;;;;;;;;5054027;28;20035;-71
2024/01/01 05:46:23;;;;;;;29.02;23.73;;;;;;;;;;5041614;28;20029;-71
2024/01/01 05:48:49;;;;;;;30.60;22.85;;;;;;;;;;5048798;28;20044;-71
2024/01/01 05:51:16;;;;;;;30.13;22.77;;;;;;;;;;5044142;28;20106;-72
2024/01/01 05:53:41;;;;;;;29.75;23.25;;;;;;;;;;5051255;28;20040;-71
2024/01/01 05:56:07;;;;;;;28.63;23.30;;;;;;;;;;5046407;28;20611;-71
2024/01/01 05:58:32;;;;;;;28.77;22.60;;;;;;;;;;5045551;28;20040;-71
2024/01/01 06:00:57;;;;;;;28.80;22.13;;;;;;;;;;5046919;28;20033;-71
2024/01/01 06:03:23;;;;;;;29.48;22.85;;;;;;;;;;5053052;28;20037;-71
2024/01/01 06:05:48;;;;;;;28.35;21.92;;;;;;;;;;5044146;28;20034;-71
2024/01/01 06:08:14;;;;;;;28.15;22.58;;;;;;;;;;5046213;28;20037;-71
2024/01/01 06:10:39;;;;;;;29.27;23.77;;;;;;;;;;5055079;28;20419;-71
2024/01/01 06:13:04;;;;;;;29.98;22.98;;;;;;;;;;5062905;28;20165;-71
2024/01/01 06:15:30;;;;;;;31.10;23.08;;;;;;;;;;5050649;28;20044;-72
2024/01/01 06:17:55;;;;;;;30.10;22.65;;;;;;;;;;5052368;28;20041;-72
2024/01/01 06:20:21;;;;;;;27.67;22.30;;;;;;;;;;5052541;28;20041;-72
2024/01/01 06:22:46;;;;;;;28.27;21.85;;;;;;;;;;5047262;28;20029;-72
2024/01/01 06:25:12;;;;;;;28.10;22.70;;;;;;;;;;5043427;28;20032;-72
2024/01/01 06:27:37;;;;;;;28.70;22.25;;;;;;;;;;5035219;28;20113;-72
2024/01/01 06:30:03;;;;;;;30.38;23.42;;;;;;;;;;5051693;28;20037;-72
2024/01/01 06:32:28;;;;;;;31.30;23.52;;;;;;;;;;5059440;28;20087;-71
2024/01/01 06:34:54;;;;;;;27.98;21.77;;;;;;;;;;5046027;28;20488;-71
2024/01/01 06:37:19;;;;;;;28.60;21.85;;;;;;;;;;5047801;28;20060;-73
2024/01/01 06:39:44;;;;;;;31.63;23.13;;;;;;;;;;5049588;28;20036;-72
2024/01/01 06:42:10;;;;;;;28.80;22.75;;;;;;;;;;5043698;28;20415;-72
2024/01/01 06:44:35;;;;;;;28.95;22.65;;;;;;;;;;5045227;28;20061;-72
2024/01/01 06:47:00;;;;;;;28.65;22.35;;;;;;;;;;5039312;28;20060;-72
2024/01/01 06:49:25;;;;;;;31.80;24.15;;;;;;;;;;5042117;28;20047;-72
2024/01/01 06:51:51;;;;;;;29.20;22.83;;;;;;;;;;5041776;28;20097;-71
2024/01/01 06:54:17;;;;;;;30.27;23.08;;;;;;;;;;5041589;28;20046;-72
2024/01/01 06:56:42;;;;;;;28.52;22.17;;;;;;;;;;5055560;28;20047;-73
2024/01/01 06:59:08;;;;;;;30.38;23.00;;;;;;;;;;5040755;28;20067;-71
2024/01/01 07:01:34;;;;;;;26.73;22.25;;;;;;;;;;5055400;28;20408;-69
2024/01/01 07:03:59;;;;;;;28.85;21.92;;;;;;;;;;5045384;28;20205;-69
2024/01/01 07:06:25;;;;;;;28.52;22.75;;;;;;;;;;5043576;28;20041;-73
2024/01/01 07:08:50;;;;;;;29.23;21.83;;;;;;;;;;5040932;28;20529;-70
2024/01/01 07:11:16;;;;;;;31.40;22.80;;;;;;;;;;5042287;28;20448;-71
2024/01/01 07:13:42;;;;;;;32.22;22.73;;;;;;;;;;5045063;28;20061;-72
2024/01/01 07:16:09;;;;;;;28.42;21.77;;;;;;;;;;5046419;28;20175;-71
2024/01/01 07:18:35;;;;;;;28.45;22.27;;;;;;;;;;5045190;28;20033;-72
2024/01/01 07:21:00;;;;;;;27.35;21.40;;;;;;;;;;5046278;28;20045;-72
2024/01/01 07:23:26;;;;;;;28.92;22.13;;;;;;;;;;5051242;28;20130;-71
2024/01/01 07:25:51;;;;;;;27.30;21.65;;;;;;;;;;5058153;28;20048;-71
2024/01/01 07:28:16;;;;;;;27.00;20.75;;;;;;;;;;5062270;28;20041;-72
2024/01/01 07:30:42;;;;;;;25.92;20.00;;;;;;;;;;5063009;28;20032;-73
2024/01/01 07:33:07;;;;;;;28.90;21.83;;;;;;;;;;5053972;28;20043;-73
2024/01/01 07:35:32;;;;;;;28.30;21.85;;;;;;;;;;5054261;28;20059;-73
2024/01/01 07:37:58;;;;;;;27.58;20.92;;;;;;;;;;5057480;28;20048;-73
2024/01/01 07:40:24;;;;;;;28.67;21.77;;;;;;;;;;5054152;28;20052;-73
2024/01/01 07:42:49;;;;;;;27.77;21.90;;;;;;;;;;5043434;28;20049;-74
2024/01/01 07:45:14;;;;;;;27.23;21.38;;;;;;;;;;5044829;28;20084;-73
2024/01/01 07:47:40;;;;;;;25.75;20.70;;;;;;;;;;5042513;28;20037;-72
2024/01/01 07:50:07;;;;;;;26.23;20.83;;;;;;;;;;5045699;28;20056;-71
2024/01/01 07:52:32;;;;;;;27.30;21.00;;;;;;;;;;5060021;28;20691;-70
2024/01/01 07:54:59;;;;;;;28.98;21.98;;;;;;;;;;5043911;28;20042;-71
2024/01/01 07:57:24;;;;;;;24.90;20.23;;;;;;;;;;5044292;28;20110;-71
2024/01/01 07:59:51;;;;;;;25.77;20.63;;;;;;;;;;5051305;28;20566;-71
2024/01/01 08:02:17;;;;;;;27.10;20.98;;;;;;;;;;5047040;28;20045;-71
2024/01/01 08:04:42;;;;;;;25.90;20.80;;;;;;;;;;5046126;28;20123;-71
2024/01/01 08:07:08;;;;;;;27.88;21.30;;;;;;;;;;5056427;28;20514;-70
2024/01/01 08:09:33;;;;;;;27.67;21.15;;;;;;;;;;5038591;28;20040;-72
2024/01/01 08:11:58;;;;;;;27.52;20.10;;;;;;;;;;5051885;28;20037;-71
2024/01/01 08:14:24;;;;;;;28.02;20.65;;;;;;;;;;5040475;28;20116;-72
2024/01/01 08:16:49;;;;;;;24.92;20.10;;;;;;;;;;5043933;28;20041;-71
2024/01/01 08:19:15;;;;;;;28.02;21.27;;;;;;;;;;5042839;28;20051;-72
2024/01/01 08:21:40;;;;;;;28.77;21.58;;;;;;;;;;5042327;28;20055;-72
2024/01/01 08:24:06;;;;;;;25.13;19.95;;;;;;;;;;5023305;28;20090;-72
2024/01/01 08:26:31;;;;;;;25.65;20.05;;;;;;;;;;5040724;28;20856;-72
2024/01/01 08:28:56;;;;;;;26.50;20.92;;;;;;;;;;5038933;28;20037;-71
2024/01/01 08:31:22;;;;;;;27.33;21.27;;;;;;;;;;5045708;28;20056;-72
2024/01/01 08:33:47;;;;;;;26.85;19.65;;;;;;;;;;5055050;28;20116;-71
2024/01/01 08:36:12;;;;;;;28.02;21.70;;;;;;;;;;5043577;28;20046;-71
2024/01/01 08:38:37;;;;;;;24.88;20.10;;;;;;;;;;5043195;28;20120;-71
2024/01/01 08:41:03;;;;;;;27.63;21.02;;;;;;;;;;5053781;28;20041;-71
2024/01/01 08:43:29;;;;;;;24.98;20.40;;;;;;;;;;5039689;28;20433;-72
2024/01/01 08:45:54;;;;;;;25.20;19.75;;;;;;;;;;5039662;28;20054;-71
2024/01/01 08:48:19;;;;;;;26.92;19.77;;;;;;;;;;5040795;28;20114;-70
2024/01/01 08:50:45;;;;;;;27.48;21.77;;;;;;;;;;5055810;28;20049;-71
2024/01/01 08:53:10;;;;;;;26.02;20.90;;;;;;;;;;5039920;28;20090;-71
2024/01/01 08:55:36;;;;;;;28.30;21.05;;;;;;;;;;5055913;28;20527;-71
2024/01/01 08:58:01;;;;;;;27.55;21.80;;;;;;;;;;5042942;28;20070;-71
2024/01/01 09:00:27;;;;;;;26.08;21.58;;;;;;;;;;5040982;28;20111;-72
2024/01/01 09:02:52;;;;;;;25.98;20.50;;;;;;;;;;5055254;28;20049;-69
2024/01/01 09:05:17;;;;;;;26.77;20.95;;;;;;;;;;5056172;28;20066;-71
2024/01/01 09:07:43;;;;;;;27.40;21.02;;;;;;;;;;5038564;28;20056;-71
2024/01/01 09:10:08;;;;;;;28.50;21.30;;;;;;;;;;5029562;28;20098;-71
2024/01/01 09:12:33;;;;;;;25.98;21.15;;;;;;;;;;5043423;28;20044;-71
2024/01/01 09:14:59;;;;;;;26.85;21.05;;;;;;;;;;5051104;28;20060;-72
2024/01/01 09:17:24;;;;;;;26.52;20.95;;;;;;;;;;5042882;28;20510;-72
2024/01/01 09:19:52;;;;;;;25.75;21.27;;;;;;;;;;5024633;28;20045;-72
2024/01/01 09:22:18;;;;;;;27.27;21.05;;;;;;;;;;5044408;28;20045;-72
2024/01/01 09:24:43;;;;;;;25.23;21.33;;;;;;;;;;5053850;28;20087;-72
2024/01/01 09:27:08;;;;;;;26.90;20.85;;;;;;;;;;5048113;28;20147;-72
2024/01/01 09:29:34;;;;;;;26.30;21.60;;;;;;;;;;5044099;28;20043;-71
2024/01/01 09:31:59;;;;;;;27.77;21.58;;;;;;;;;;5044593;28;20043;-71
2024/01/01 09:34:24;;;;;;;25.60;21.05;;;;;;;;;;5045736;28;20136;-71
2024/01/01 09:36:50;;;;;;;26.90;21.98;;;;;;;;;;5051411;28;20047;-70
2024/01/01 09:39:15;;;;;;;27.48;20.88;;;;;;;;;;5046536;28;20105;-73
2024/01/01 09:41:40;;;;;;;28.23;21.65;;;;;;;;;;5047248;28;20479;-71
2024/01/01 09:44:06;;;;;;;27.55;21.80;;;;;;;;;;5046751;28;20488;-71
2024/01/01 09:46:33;;;;;;;37.03;27.73;;;;;;;;;;5065360;28;20586;-71
2024/01/01 09:48:59;;;;;;;37.05;29.00;;;;;;;;;;5042669;28;20120;-71
2024/01/01 09:51:24;;;;;;;38.10;29.17;;;;;;;;;;5044644;28;20116;-70
2024/01/01 09:53:49;;;;;;;42.05;30.92;;;;;;;;;;5043386;28;20035;-70
2024/01/01 09:56:17;;;;;;;38.00;30.05;;;;;;;;;;5021193;28;20052;-71
2024/01/01 09:58:43;;;;;;;37.20;30.10;;;;;;;;;;5039475;28;20507;-71
2024/01/01 10:01:10;;;;;;;39.45;30.23;;;;;;;;;;5044019;28;20037;-71
2024/01/01 10:03:35;;;;;;;37.08;30.10;;;;;;;;;;5051769;28;20029;-71
2024/01/01 10:06:08;;;;;;;36.85;29.08;;;;;;;;;;5052369;28;20030;-71
2024/01/01 10:08:34;;;;;;;36.38;29.50;;;;;;;;;;5042158;28;20545;-70
2024/01/01 10:11:00;;;;;;;32.97;27.83;;;;;;;;;;5054001;28;20040;-70
2024/01/01 10:13:25;;;;;;;33.08;27.67;;;;;;;;;;5019854;28;20057;-71
2024/01/01 10:15:54;;;;;;;35.92;26.67;;;;;;;;;;5042125;28;20135;-71
2024/01/01 10:18:19;;;;;;;32.78;25.70;;;;;;;;;;5041925;28;20040;-72
2024/01/01 10:20:45;;;;;;;36.40;28.42;;;;;;;;;;5038553;28;20114;-72
2024/01/01 10:23:19;;;;;;;34.00;27.13;;;;;;;;;;5036356;28;20034;-72
2024/01/01 10:25:44;;;;;;;33.30;25.38;;;;;;;;;;5038532;28;20040;-72
2024/01/01 10:28:10;;;;;;;45.85;34.35;;;;;;;;;;5041088;28;20036;-72
2024/01/01 10:30:35;;;;;;;36.65;27.77;;;;;;;;;;5045503;28;20164;-73
2024/01/01 10:33:01;;;;;;;31.63;24.60;;;;;;;;;;5035363;28;20060;-71
2024/01/01 10:35:28;;;;;;;31.15;24.77;;;;;;;;;;5059513;28;20511;-70
2024/01/01 10:37:53;;;;;;;31.13;24.63;;;;;;;;;;5042413;28;20409;-71
2024/01/01 10:40:19;;;;;;;32.10;24.35;;;;;;;;;;5046128;28;20063;-72
2024/01/01 10:42:45;;;;;;;32.17;23.63;;;;;;;;;;5039246;28;20025;-70
2024/01/01 10:45:10;;;;;;;32.17;24.38;;;;;;;;;;5042732;28;20037;-72
2024/01/01 10:47:36;;;;;;;30.40;23.55;;;;;;;;;;5036272;28;20055;-72
2024/01/01 10:50:07;;;;;;;28.92;22.92;;;;;;;;;;5053056;28;20129;-71
2024/01/01 10:52:39;;;;;;;29.50;23.17;;;;;;;;;;5041303;28;20127;-70
2024/01/01 10:55:19;;;;;;;30.05;23.65;;;;;;;;;;5042718;28;20520;-71
2024/01/01 10:57:45;;;;;;;29.10;21.08;;;;;;;;;;5020382;28;20127;-72
2024/01/01 11:00:14;;;;;;;27.65;21.55;;;;;;;;;;5037160;28;20490;-70
2024/01/01 11:02:39;;;;;;;27.40;21.40;;;;;;;;;;5041470;28;20407;-70
2024/01/01 11:05:08;;;;;;;26.92;21.80;;;;;;;;;;5038384;28;20033;-71
2024/01/01 11:07:52;;;;;;;28.35;22.33;;;;;;;;;;5049514;28;20053;-71
2024/01/01 11:10:35;;;;;;;26.98;21.85;;;;;;;;;;5040316;28;20068;-71
2024/01/01 11:13:04;;;;;;;28.10;21.77;;;;;;;;;;5038554;28;20041;-70
2024/01/01 11:15:48;;;;;;;27.75;20.52;;;;;;;;;;5040994;28;20052;-70
2024/01/01 11:18:14;;;;;;;26.45;20.50;;;;;;;;;;5055344;28;20567;-71
2024/01/01 11:20:49;;;;;;;26.33;21.88;;;;;;;;;;5054984;28;20206;-70
2024/01/01 11:23:34;;;;;;;24.95;19.77;;;;;;;;;;5034416;28;20132;-71
2024/01/01 11:26:00;;;;;;;27.90;20.30;;;;;;;;;;5029987;28;20068;-71
2024/01/01 11:28:43;;;;;;;27.65;20.85;;;;;;;;;;5035529;28;20037;-69
2024/01/01 11:31:08;;;;;;;28.05;21.10;;;;;;;;;;5043732;28;20037;-70
2024/01/01 11:33:34;;;;;;;25.63;19.30;;;;;;;;;;5046177;28;20037;-69
2024/01/01 11:36:06;;;;;;;24.40;19.02;;;;;;;;;;5041848;28;20060;-70
2024/01/01 11:38:31;;;;;;;24.00;19.23;;;;;;;;;;5044705;28;20104;-70
2024/01/01 11:40:56;;;;;;;26.05;20.35;;;;;;;;;;5045263;28;20119;-70
2024/01/01 11:43:22;;;;;;;27.30;19.88;;;;;;;;;;5040556;28;20021;-70
2024/01/01 11:45:47;;;;;;;25.83;19.27;;;;;;;;;;5058527;28;20025;-70
2024/01/01 11:48:13;;;;;;;25.27;19.33;;;;;;;;;;5055853;28;20480;-70
2024/01/01 11:50:38;;;;;;;23.40;18.98;;;;;;;;;;5057235;28;20111;-70
2024/01/01 11:53:04;;;;;;;23.08;18.50;;;;;;;;;;5040824;28;20554;-70
2024/01/01 11:55:29;;;;;;;23.27;18.80;;;;;;;;;;5040872;28;20048;-70
2024/01/01 11:57:54;;;;;;;23.10;18.33;;;;;;;;;;5044088;28;20563;-70
2024/01/01 12:00:20;;;;;;;23.85;18.90;;;;;;;;;;5042556;28;20036;-70
2024/01/01 12:02:46;;;;;;;24.63;18.90;;;;;;;;;;5045603;28;20066;-70
2024/01/01 12:05:11;;;;;;;23.55;18.77;;;;;;;;;;5043785;28;20053;-70
2024/01/01 12:07:37;;;;;;;21.42;17.95;;;;;;;;;;5040264;28;20033;-70
2024/01/01 12:10:04;;;;;;;23.65;18.67;;;;;;;;;;5042365;28;20049;-70
2024/01/01 12:12:29;;;;;;;23.13;18.33;;;;;;;;;;5057521;28;20033;-70
2024/01/01 12:15:06;;;;;;;22.67;18.10;;;;;;;;;;5042759;28;20057;-70
2024/01/01 12:17:31;;;;;;;21.27;17.42;;;;;;;;;;5044937;28;20033;-69
2024/01/01 12:19:58;;;;;;;21.90;17.70;;;;;;;;;;5041891;28;20504;-70
2024/01/01 12:22:24;;;;;;;20.77;17.55;;;;;;;;;;5065454;28;20044;-70
2024/01/01 12:24:59;;;;;;;22.05;16.58;;;;;;;;;;5048596;28;20037;-70
2024/01/01 12:27:24;;;;;;;21.33;17.67;;;;;;;;;;5055855;28;20453;-70
2024/01/01 12:29:50;;;;;;;22.40;17.13;;;;;;;;;;5047377;28;20025;-70
2024/01/01 12:32:16;;;;;;;20.95;17.02;;;;;;;;;;5062646;28;20024;-70
2024/01/01 12:34:41;;;;;;;19.45;16.88;;;;;;;;;;5056031;28;20025;-70
2024/01/01 12:37:06;;;;;;;21.77;17.75;;;;;;;;;;5054149;28;20516;-70
2024/01/01 12:39:31;;;;;;;21.15;16.95;;;;;;;;;;5051150;28;20096;-70
2024/01/01 12:41:57;;;;;;;19.52;16.73;;;;;;;;;;5062711;28;20518;-70
2024/01/01 12:44:23;;;;;;;20.08;16.77;;;;;;;;;;5058037;28;20157;-70
2024/01/01 12:46:49;;;;;;;19.70;16.52;;;;;;;;;;5069297;28;20024;-70
2024/01/01 12:49:14;;;;;;;21.40;16.70;;;;;;;;;;5053115;28;20397;-71
2024/01/01 12:51:40;;;;;;;19.48;16.48;;;;;;;;;;5064787;28;20388;-70
2024/01/01 12:54:05;;;;;;;21.30;16.27;;;;;;;;;;5055947;28;20124;-70
2024/01/01 12:56:30;;;;;;;19.52;16.50;;;;;;;;;;5054813;28;20037;-70
2024/01/01 12:58:55;;;;;;;21.17;16.88;;;;;;;;;;5054498;28;20028;-70
2024/01/01 13:01:22;;;;;;;20.25;16.63;;;;;;;;;;5061591;28;20034;-70
2024/01/01 13:03:47;;;;;;;20.15;16.60;;;;;;;;;;5045251;28;20108;-70
2024/01/01 13:06:13;;;;;;;20.58;16.35;;;;;;;;;;5045271;28;20128;-70
2024/01/01 13:08:38;;;;;;;19.45;15.18;;;;;;;;;;5046481;28;20074;-70
2024/01/01 13:11:04;;;;;;;19.52;15.45;;;;;;;;;;5053043;28;20066;-70
2024/01/01 13:13:31;;;;;;;19.00;15.50;;;;;;;;;;5053204;28;20100;-70
2024/01/01 13:15:57;;;;;;;33.60;16.08;;;;;;;;;;5065924;28;20135;-72
2024/01/01 13:18:22;;;;;;;25.13;16.25;;;;;;;;;;5042388;28;20565;-71
2024/01/01 13:20:47;;;;;;;30.42;16.55;;;;;;;;;;5043921;28;20033;-70
2024/01/01 13:23:16;;;;;;;25.90;16.13;;;;;;;;;;5043823;28;20095;-71
2024/01/01 13:25:42;;;;;;;24.75;15.75;;;;;;;;;;5034569;28;20029;-73
2024/01/01 13:28:08;;;;;;;22.25;14.90;;;;;;;;;;5034818;28;20167;-72
2024/01/01 13:30:33;;;;;;;24.00;15.38;;;;;;;;;;5035799;28;20092;-72
2024/01/01 13:32:58;;;;;;;22.50;15.05;;;;;;;;;;5048962;28;20041;-73
2024/01/01 13:35:25;;;;;;;20.63;15.55;;;;;;;;;;5039162;28;20106;-71
2024/01/01 13:37:50;;;;;;;22.88;15.45;;;;;;;;;;5040477;28;20553;-70
2024/01/01 13:40:15;;;;;;;24.17;15.73;;;;;;;;;;5036885;28;20041;-71
2024/01/01 13:42:41;;;;;;;24.08;15.93;;;;;;;;;;5039867;28;20090;-72
2024/01/01 13:45:08;;;;;;;22.75;16.35;;;;;;;;;;5037396;28;20045;-71
2024/01/01 13:47:33;;;;;;;22.08;14.98;;;;;;;;;;5038376;28;20512;-70
2024/01/01 13:49:59;;;;;;;23.00;16.13;;;;;;;;;;5040646;28;20045;-71
2024/01/01 13:52:24;;;;;;;20.80;14.75;;;;;;;;;;5039077;28;20098;-71
2024/01/01 13:54:49;;;;;;;19.58;15.23;;;;;;;;;;5037733;28;20033;-71
2024/01/01 13:57:15;;;;;;;20.45;16.02;;;;;;;;;;5051931;28;20037;-70
2024/01/01 13:59:40;;;;;;;20.85;15.40;;;;;;;;;;5038108;28;20356;-72
2024/01/01 14:02:07;;;;;;;19.83;15.38;;;;;;;;;;5040654;28;20041;-72
2024/01/01 14:04:32;;;;;;;17.45;15.13;;;;;;;;;;5038880;28;20036;-72
2024/01/01 14:06:57;;;;;;;21.38;15.60;;;;;;;;;;5047717;28;20102;-72
2024/01/01 14:09:23;;;;;;;21.02;15.02;;;;;;;;;;5039672;28;20098;-72